Gng Concord3 — VRNG4 — position and weather

sailwx.info

Track history (hours):
 
Tides and Currents Weather Stations Pressure Air Temp Water Temp Dewpoint Dewpoint Depression Visibility Wind Speed Wind Dir Waves Ship Positions

Gng Concord3

Last reported at 2018-Feb-19 02:26 UTC. Time now 2018-Feb-22 22:53 UTC.
Position N 28°59' W 015°36'.

Length 225 m; draft 12.5 m.

Type: Cargo ship. MMSI: 477712200.

Date/timePositionNaut miles runAvg speedWind from/ knotsBaromVisibWave heightAir tempDewpointWater temp
2018-Feb-19 02:26N 28°59' W 015°36'511.2
2018-Feb-19 01:59N 28°54' W 015°37'611.2
2018-Feb-19 01:27N 28°49' W 015°38'511.3
2018-Feb-19 01:00N 28°44' W 015°39'611.1
2018-Feb-19 00:30N 28°38' W 015°40'510.8
2018-Feb-19 00:00N 28°33' W 015°42'611.3
2018-Feb-18 23:30N 28°29' W 015°47'611.3
2018-Feb-18 23:00N 28°25' W 015°51'611.3
2018-Feb-18 22:30N 28°20' W 015°55'611.1
2018-Feb-18 21:57N 28°16' W 015°60'611.1
2018-Feb-18 21:22N 28°11' W 016°04'411.1
2018-Feb-18 21:00N 28°07' W 016°07'  
Track history (hours):
 
Tides and Currents Weather Stations Pressure Air Temp Water Temp Dewpoint Dewpoint Depression Visibility Wind Speed Wind Dir Waves Ship Positions

Gng Concord3

Last reported at 2018-Feb-19 02:26 UTC. Time now 2018-Feb-22 22:53 UTC.
Position N 28°59' W 015°36'.

Length 225 m; draft 12.5 m.

Type: Cargo ship. MMSI: 477712200.

Date/timePositionNaut miles runAvg speedWind from/ knotsBaromVisibWave heightAir tempDewpointWater temp
2018-Feb-19 02:26N 28°59' W 015°36'511.2
2018-Feb-19 01:59N 28°54' W 015°37'611.2
2018-Feb-19 01:27N 28°49' W 015°38'511.3
2018-Feb-19 01:00N 28°44' W 015°39'611.1
2018-Feb-19 00:30N 28°38' W 015°40'510.8
2018-Feb-19 00:00N 28°33' W 015°42'611.3
2018-Feb-18 23:30N 28°29' W 015°47'611.3
2018-Feb-18 23:00N 28°25' W 015°51'611.3
2018-Feb-18 22:30N 28°20' W 015°55'611.1
2018-Feb-18 21:57N 28°16' W 015°60'611.1
2018-Feb-18 21:22N 28°11' W 016°04'411.1
2018-Feb-18 21:00N 28°07' W 016°07'  

Dump ship's entire track history